sensor_id;sensor_type;location;lat;lon;timestamp;pressure;altitude;pressure_sealevel;temperature;humidity
61484;BME280;47349;55.640;37.692;2022-07-11T08:04:30;98630.88;;;27.94;49.78
61484;BME280;47349;55.640;37.692;2022-07-11T08:08:12;98616.44;;;27.88;50.29
61484;BME280;47349;55.640;37.692;2022-07-11T08:10:53;98623.72;;;28.15;50.24
61484;BME280;47349;55.640;37.692;2022-07-11T08:13:59;98650.84;;;28.31;50.22
61484;BME280;47349;55.640;37.692;2022-07-11T08:16:42;98617.56;;;28.18;49.37
61484;BME280;47349;55.640;37.692;2022-07-11T08:19:50;98656.31;;;28.53;48.46
61484;BME280;47349;55.640;37.692;2022-07-11T08:22:51;98618.84;;;28.43;49.27
61484;BME280;47349;55.640;37.692;2022-07-11T08:25:55;98634.28;;;28.62;49.09
61484;BME280;47349;55.640;37.692;2022-07-11T08:28:46;98628.78;;;28.71;48.97
61484;BME280;47349;55.640;37.692;2022-07-11T08:31:49;98631.59;;;28.88;47.60
61484;BME280;47349;55.640;37.692;2022-07-11T08:34:54;98606.09;;;28.74;46.34
61484;BME280;47349;55.640;37.692;2022-07-11T08:37:58;98603.50;;;28.77;46.25
61484;BME280;47349;55.640;37.692;2022-07-11T08:40:49;98598.97;;;28.73;46.65
61484;BME280;47349;55.640;37.692;2022-07-11T08:43:56;98621.69;;;28.87;45.93
61484;BME280;47349;55.640;37.692;2022-07-11T08:46:47;98616.63;;;28.63;46.70
61484;BME280;47349;55.640;37.692;2022-07-11T08:49:57;98625.34;;;28.56;47.43
61484;BME280;47349;55.640;37.692;2022-07-11T08:52:39;98595.94;;;28.43;48.47
61484;BME280;47349;55.640;37.692;2022-07-11T08:59:03;98593.44;;;28.73;48.01
61484;BME280;47349;55.640;37.692;2022-07-11T09:02:46;98623.94;;;28.85;47.11
61484;BME280;47349;55.640;37.692;2022-07-11T09:06:29;98599.56;;;28.61;47.14
61484;BME280;47349;55.640;37.692;2022-07-11T09:09:11;98592.41;;;28.51;47.53
61484;BME280;47349;55.640;37.692;2022-07-11T09:15:46;98610.31;;;28.80;46.79
61484;BME280;47349;55.640;37.692;2022-07-11T09:20:24;98582.09;;;28.83;45.96
61484;BME280;47349;55.640;37.692;2022-07-11T09:23:26;98571.91;;;29.01;45.93
61484;BME280;47349;55.640;37.692;2022-07-11T09:26:49;98562.66;;;29.23;44.52
61484;BME280;47349;55.640;37.692;2022-07-11T09:33:06;98585.66;;;29.70;43.23
61484;BME280;47349;55.640;37.692;2022-07-11T09:36:49;98594.75;;;29.79;42.46
61484;BME280;47349;55.640;37.692;2022-07-11T09:42:54;98570.97;;;29.87;42.33
61484;BME280;47349;55.640;37.692;2022-07-11T09:46:04;98553.78;;;29.81;42.50
61484;BME280;47349;55.640;37.692;2022-07-11T09:48:48;98553.25;;;29.88;41.97
61484;BME280;47349;55.640;37.692;2022-07-11T09:51:38;98538.63;;;29.87;42.01
61484;BME280;47349;55.640;37.692;2022-07-11T09:54:58;98567.63;;;30.19;41.11
61484;BME280;47349;55.640;37.692;2022-07-11T09:58:29;98527.34;;;30.10;41.00
61484;BME280;47349;55.640;37.692;2022-07-11T10:01:14;98533.53;;;30.07;40.42
61484;BME280;47349;55.640;37.692;2022-07-11T10:04:42;98571.59;;;30.39;40.37
61484;BME280;47349;55.640;37.692;2022-07-11T10:07:57;98564.88;;;30.49;39.58
61484;BME280;47349;55.640;37.692;2022-07-11T10:11:00;98553.41;;;30.38;39.33
61484;BME280;47349;55.640;37.692;2022-07-11T10:14:28;98544.34;;;30.29;39.98
61484;BME280;47349;55.640;37.692;2022-07-11T10:17:26;98569.44;;;30.45;39.72
61484;BME280;47349;55.640;37.692;2022-07-11T10:20:58;98560.44;;;30.57;40.49
61484;BME280;47349;55.640;37.692;2022-07-11T10:24:38;98568.94;;;30.52;40.07
61484;BME280;47349;55.640;37.692;2022-07-11T10:35:08;98539.97;;;30.49;40.63
61484;BME280;47349;55.640;37.692;2022-07-11T10:42:40;98562.47;;;30.68;39.61
61484;BME280;47349;55.640;37.692;2022-07-11T10:52:30;98504.84;;;30.50;37.89
61484;BME280;47349;55.640;37.692;2022-07-11T10:58:44;98541.66;;;30.92;37.91
61484;BME280;47349;55.640;37.692;2022-07-11T11:13:09;98553.47;;;31.55;37.43
61484;BME280;47349;55.640;37.692;2022-07-11T11:16:27;98538.13;;;31.58;37.63
61484;BME280;47349;55.640;37.692;2022-07-11T11:23:10;98521.66;;;31.73;36.83
61484;BME280;47349;55.640;37.692;2022-07-11T11:26:46;98535.78;;;32.05;35.30
61484;BME280;47349;55.640;37.692;2022-07-11T11:30:56;98540.63;;;32.33;34.74
61484;BME280;47349;55.640;37.692;2022-07-11T11:40:51;98525.63;;;32.34;34.60
61484;BME280;47349;55.640;37.692;2022-07-11T11:46:44;98531.63;;;32.48;33.60
61484;BME280;47349;55.640;37.692;2022-07-11T11:49:45;98493.72;;;32.52;33.40
61484;BME280;47349;55.640;37.692;2022-07-11T11:52:46;98501.16;;;32.88;33.25
61484;BME280;47349;55.640;37.692;2022-07-11T11:56:10;98493.19;;;33.15;32.23
61484;BME280;47349;55.640;37.692;2022-07-11T11:59:08;98503.78;;;33.53;32.34
61484;BME280;47349;55.640;37.692;2022-07-11T12:02:33;98512.00;;;33.21;32.49
61484;BME280;47349;55.640;37.692;2022-07-11T12:06:05;98528.63;;;33.34;32.58
61484;BME280;47349;55.640;37.692;2022-07-11T12:08:48;98510.97;;;32.98;32.86
61484;BME280;47349;55.640;37.692;2022-07-11T12:12:02;98539.72;;;32.65;33.77
61484;BME280;47349;55.640;37.692;2022-07-11T12:15:43;98543.44;;;32.20;34.06
61484;BME280;47349;55.640;37.692;2022-07-11T12:19:07;98537.75;;;32.66;33.02
61484;BME280;47349;55.640;37.692;2022-07-11T12:22:18;98541.84;;;33.24;32.47
61484;BME280;47349;55.640;37.692;2022-07-11T12:25:25;98540.16;;;33.80;31.43
61484;BME280;47349;55.640;37.692;2022-07-11T12:30:23;98537.50;;;34.31;30.92
61484;BME280;47349;55.640;37.692;2022-07-11T12:38:05;98546.47;;;33.76;31.37
61484;BME280;47349;55.640;37.692;2022-07-11T12:42:11;98514.44;;;33.51;31.77
61484;BME280;47349;55.640;37.692;2022-07-11T12:50:49;98502.41;;;32.51;34.56
61484;BME280;47349;55.640;37.692;2022-07-11T12:59:25;98561.00;;;32.37;34.74
